Time;durP1;ratioP1;P1;durP2;ratioP2;P2;SDS_P1;SDS_P2;PMS_P1;PMS_P2;Temp;Humidity;BMP_temperature;BMP_pressure;BME280_temperature;BME280_humidity;BME280_pressure;Samples;Min_cycle;Max_cycle;Signal;HPM_P1;HPM_P2
2022/07/16 00:02:10;;;;;;;0.57;0.52;;;;;;;;;;4505708;28;20072;-68
2022/07/16 00:04:20;;;;;;;0.50;0.50;;;;;;;;;;4488782;28;20050;-67
2022/07/16 00:06:31;;;;;;;1.50;0.50;;;;;;;;;;4505274;28;20026;-67
2022/07/16 00:08:41;;;;;;;1.77;0.50;;;;;;;;;;4505706;28;20041;-68
2022/07/16 00:10:52;;;;;;;1.13;0.70;;;;;;;;;;4505538;28;20056;-68
2022/07/16 00:13:02;;;;;;;1.85;0.55;;;;;;;;;;4505983;28;20028;-67
2022/07/16 00:15:13;;;;;;;0.50;0.40;;;;;;;;;;4504444;28;20096;-68
2022/07/16 00:17:23;;;;;;;0.93;0.50;;;;;;;;;;4504675;28;20050;-67
2022/07/16 00:19:34;;;;;;;0.95;0.60;;;;;;;;;;4505368;28;20479;-67
2022/07/16 00:21:49;;;;;;;0.80;0.60;;;;;;;;;;4505959;28;20033;-67
2022/07/16 00:24:01;;;;;;;1.05;0.50;;;;;;;;;;4503493;28;20751;-68
2022/07/16 00:26:11;;;;;;;1.08;0.80;;;;;;;;;;4476257;28;20050;-67
2022/07/16 00:28:22;;;;;;;1.15;0.65;;;;;;;;;;4509042;28;20061;-67
2022/07/16 00:30:33;;;;;;;0.60;0.60;;;;;;;;;;4508217;28;20044;-68
2022/07/16 00:32:43;;;;;;;0.60;0.55;;;;;;;;;;4494648;28;20037;-67
2022/07/16 00:34:54;;;;;;;0.50;0.50;;;;;;;;;;4493984;28;22042;-67
2022/07/16 00:37:04;;;;;;;1.30;0.55;;;;;;;;;;4508919;28;20292;-67
2022/07/16 00:39:16;;;;;;;0.98;0.70;;;;;;;;;;4494553;28;20038;-67
2022/07/16 00:41:26;;;;;;;1.13;0.60;;;;;;;;;;4507134;28;20645;-67
2022/07/16 00:43:48;;;;;;;0.57;0.50;;;;;;;;;;4507602;28;20518;-67
2022/07/16 00:45:59;;;;;;;0.98;0.70;;;;;;;;;;4494342;28;20610;-67
2022/07/16 00:48:09;;;;;;;1.00;0.70;;;;;;;;;;4506862;28;20104;-68
2022/07/16 00:50:20;;;;;;;1.15;0.85;;;;;;;;;;4494660;28;20475;-67
2022/07/16 00:52:35;;;;;;;0.50;0.50;;;;;;;;;;4506508;28;20450;-67
2022/07/16 00:54:45;;;;;;;0.60;0.60;;;;;;;;;;4507351;28;20084;-67
2022/07/16 00:56:55;;;;;;;0.85;0.70;;;;;;;;;;4506692;28;20048;-68
2022/07/16 00:59:06;;;;;;;0.60;0.60;;;;;;;;;;4508611;28;20045;-66
2022/07/16 01:01:17;;;;;;;1.58;0.80;;;;;;;;;;4507238;28;20022;-67
2022/07/16 01:03:27;;;;;;;1.00;0.60;;;;;;;;;;4506999;28;20050;-67
2022/07/16 01:05:37;;;;;;;0.75;0.60;;;;;;;;;;4490622;28;20039;-66
2022/07/16 01:07:48;;;;;;;0.88;0.57;;;;;;;;;;4507384;28;20361;-67
2022/07/16 01:09:58;;;;;;;1.13;0.60;;;;;;;;;;4508548;28;20136;-67
2022/07/16 01:12:09;;;;;;;1.00;0.70;;;;;;;;;;4491245;28;20564;-67
2022/07/16 01:14:20;;;;;;;0.85;0.70;;;;;;;;;;4490928;28;20049;-67
2022/07/16 01:16:31;;;;;;;0.60;0.60;;;;;;;;;;4500297;28;20057;-67
2022/07/16 01:18:43;;;;;;;1.80;0.80;;;;;;;;;;4507994;28;20068;-67
2022/07/16 01:20:53;;;;;;;1.17;0.85;;;;;;;;;;4508016;28;20052;-67
2022/07/16 01:23:05;;;;;;;0.93;0.60;;;;;;;;;;4507494;28;20513;-67
2022/07/16 01:25:15;;;;;;;1.42;0.80;;;;;;;;;;4508125;28;20030;-67
2022/07/16 01:27:26;;;;;;;1.05;0.60;;;;;;;;;;4507045;28;20034;-67
2022/07/16 01:29:36;;;;;;;0.82;0.73;;;;;;;;;;4481238;28;20074;-67
2022/07/16 01:31:47;;;;;;;1.15;0.82;;;;;;;;;;4508126;28;20022;-67
2022/07/16 01:36:26;;;;;;;0.73;0.70;;;;;;;;;;4494222;28;20213;-67
2022/07/16 01:38:39;;;;;;;1.83;0.98;;;;;;;;;;4508276;28;20026;-67
2022/07/16 01:40:49;;;;;;;1.00;0.80;;;;;;;;;;4477161;28;20034;-67
2022/07/16 01:43:00;;;;;;;0.77;0.70;;;;;;;;;;4509592;28;20046;-67
2022/07/16 01:45:10;;;;;;;1.15;0.98;;;;;;;;;;4508166;28;20064;-67
2022/07/16 01:47:21;;;;;;;1.77;0.90;;;;;;;;;;4490066;28;20061;-67
2022/07/16 01:49:33;;;;;;;1.17;0.80;;;;;;;;;;4507361;28;20038;-66
2022/07/16 01:51:44;;;;;;;1.20;0.98;;;;;;;;;;4507148;28;20041;-67
2022/07/16 01:53:54;;;;;;;1.35;1.00;;;;;;;;;;4499574;28;20033;-66
2022/07/16 01:56:05;;;;;;;1.50;1.00;;;;;;;;;;4506137;28;20566;-66
2022/07/16 01:58:16;;;;;;;1.10;1.00;;;;;;;;;;4507416;28;21018;-66
2022/07/16 02:00:26;;;;;;;1.88;1.10;;;;;;;;;;4506262;28;20034;-66
2022/07/16 02:02:37;;;;;;;1.00;0.90;;;;;;;;;;4489856;28;20048;-67
2022/07/16 02:04:47;;;;;;;1.17;1.00;;;;;;;;;;4507778;28;20037;-66
2022/07/16 02:06:58;;;;;;;1.45;0.90;;;;;;;;;;4489849;28;20025;-66
2022/07/16 02:09:08;;;;;;;1.77;1.00;;;;;;;;;;4508124;28;20030;-67
2022/07/16 02:11:19;;;;;;;1.48;1.10;;;;;;;;;;4480863;28;20519;-67
2022/07/16 02:13:29;;;;;;;1.75;1.23;;;;;;;;;;4490212;28;20031;-67
2022/07/16 02:15:40;;;;;;;1.75;1.10;;;;;;;;;;4507373;28;20033;-65
2022/07/16 02:17:50;;;;;;;1.63;1.10;;;;;;;;;;4492452;28;20042;-66
2022/07/16 02:20:02;;;;;;;1.88;1.05;;;;;;;;;;4505298;28;20687;-68
2022/07/16 02:22:14;;;;;;;1.70;1.20;;;;;;;;;;4505811;28;20041;-67
2022/07/16 02:24:25;;;;;;;2.50;1.27;;;;;;;;;;4486616;28;20487;-67
2022/07/16 02:26:35;;;;;;;1.20;1.00;;;;;;;;;;4506084;28;20029;-68
2022/07/16 02:28:46;;;;;;;2.63;1.30;;;;;;;;;;4493845;28;20066;-67
2022/07/16 02:30:56;;;;;;;1.17;1.00;;;;;;;;;;4491634;28;20034;-67
2022/07/16 02:33:08;;;;;;;1.38;1.27;;;;;;;;;;4507013;28;20087;-67
2022/07/16 02:35:18;;;;;;;2.28;1.10;;;;;;;;;;4507565;28;20080;-67
2022/07/16 02:37:29;;;;;;;1.98;1.20;;;;;;;;;;4506992;28;20115;-67
2022/07/16 02:39:39;;;;;;;1.55;0.90;;;;;;;;;;4507432;28;20088;-67
2022/07/16 02:41:50;;;;;;;1.77;1.10;;;;;;;;;;4509295;28;20060;-67
2022/07/16 02:44:00;;;;;;;2.00;1.17;;;;;;;;;;4481519;28;20037;-67
2022/07/16 02:46:11;;;;;;;1.33;1.20;;;;;;;;;;4506634;28;20049;-66
2022/07/16 02:48:22;;;;;;;1.98;1.30;;;;;;;;;;4504709;28;20088;-66
2022/07/16 02:50:32;;;;;;;1.60;1.10;;;;;;;;;;4506613;28;20133;-67
2022/07/16 02:52:43;;;;;;;1.88;1.25;;;;;;;;;;4471777;28;20515;-67
2022/07/16 02:54:53;;;;;;;1.65;1.30;;;;;;;;;;4505861;28;20116;-68
2022/07/16 02:57:03;;;;;;;1.83;1.35;;;;;;;;;;4482862;28;20102;-67
2022/07/16 02:59:14;;;;;;;2.55;1.33;;;;;;;;;;4505444;28;20516;-67
2022/07/16 03:01:24;;;;;;;1.60;1.10;;;;;;;;;;4490114;28;20042;-67
2022/07/16 03:03:35;;;;;;;1.33;1.23;;;;;;;;;;4507193;28;20062;-66
2022/07/16 03:05:45;;;;;;;1.30;1.10;;;;;;;;;;4505885;28;20044;-67
2022/07/16 03:07:55;;;;;;;1.63;1.20;;;;;;;;;;4504964;28;20083;-66
2022/07/16 03:10:08;;;;;;;1.58;1.30;;;;;;;;;;4507283;28;30146;-66
2022/07/16 03:12:18;;;;;;;1.50;1.20;;;;;;;;;;4506982;28;20057;-66
2022/07/16 03:14:29;;;;;;;1.13;1.00;;;;;;;;;;4507559;28;20113;-66
2022/07/16 03:16:39;;;;;;;2.15;1.20;;;;;;;;;;4475094;28;20051;-66
2022/07/16 03:18:50;;;;;;;2.28;1.52;;;;;;;;;;4505337;28;20022;-66
2022/07/16 03:21:00;;;;;;;1.45;1.15;;;;;;;;;;4505495;28;20133;-66
2022/07/16 03:23:11;;;;;;;1.25;1.10;;;;;;;;;;4505897;28;20053;-66
2022/07/16 03:25:21;;;;;;;1.70;1.20;;;;;;;;;;4489582;28;20030;-67
2022/07/16 03:27:32;;;;;;;2.30;1.40;;;;;;;;;;4489034;28;20044;-67
2022/07/16 03:29:42;;;;;;;1.55;1.40;;;;;;;;;;4506143;28;20410;-66
2022/07/16 03:31:53;;;;;;;1.58;1.20;;;;;;;;;;4506954;28;20044;-67
2022/07/16 03:34:03;;;;;;;2.30;1.40;;;;;;;;;;4506693;28;20029;-67
2022/07/16 03:36:14;;;;;;;1.70;1.40;;;;;;;;;;4505903;28;28836;-68
2022/07/16 03:40:53;;;;;;;1.40;1.30;;;;;;;;;;4506986;28;21600;-67
2022/07/16 03:43:04;;;;;;;2.42;1.52;;;;;;;;;;4487735;28;20050;-67
2022/07/16 03:45:14;;;;;;;1.52;1.23;;;;;;;;;;4489106;28;20037;-66
2022/07/16 03:47:25;;;;;;;1.50;1.20;;;;;;;;;;4507276;28;20030;-67
2022/07/16 03:49:35;;;;;;;1.63;1.25;;;;;;;;;;4505993;28;20041;-67
2022/07/16 03:51:46;;;;;;;2.28;1.35;;;;;;;;;;4505815;28;20030;-67
2022/07/16 03:53:56;;;;;;;1.60;1.30;;;;;;;;;;4507036;28;20561;-68
2022/07/16 03:56:07;;;;;;;1.90;1.20;;;;;;;;;;4506539;28;20137;-66
2022/07/16 03:58:17;;;;;;;1.30;1.20;;;;;;;;;;4506599;28;20030;-67
2022/07/16 04:00:28;;;;;;;2.20;1.30;;;;;;;;;;4512269;28;20084;-67
2022/07/16 04:02:38;;;;;;;1.48;1.05;;;;;;;;;;4511049;28;20034;-67
2022/07/16 04:04:49;;;;;;;2.00;1.10;;;;;;;;;;4500391;28;20034;-67
2022/07/16 04:06:59;;;;;;;1.27;1.15;;;;;;;;;;4484298;28;20030;-66
2022/07/16 04:09:10;;;;;;;1.90;1.33;;;;;;;;;;4510350;28;20026;-66
2022/07/16 04:11:20;;;;;;;2.30;1.30;;;;;;;;;;4510144;28;20037;-66
2022/07/16 04:13:31;;;;;;;1.70;1.38;;;;;;;;;;4508172;28;20037;-66
2022/07/16 04:15:41;;;;;;;2.55;1.30;;;;;;;;;;4494809;28;20033;-66
2022/07/16 04:17:52;;;;;;;2.83;1.50;;;;;;;;;;4508535;28;20137;-66
2022/07/16 04:20:03;;;;;;;1.50;1.40;;;;;;;;;;4509345;28;20276;-66
2022/07/16 04:22:14;;;;;;;1.40;1.10;;;;;;;;;;4510355;28;20069;-66
2022/07/16 04:24:24;;;;;;;1.98;1.45;;;;;;;;;;4508253;28;20482;-66
2022/07/16 04:26:35;;;;;;;1.30;1.20;;;;;;;;;;4495468;28;20077;-66
2022/07/16 04:28:45;;;;;;;1.42;1.17;;;;;;;;;;4491011;28;20112;-67
2022/07/16 04:30:56;;;;;;;1.67;1.30;;;;;;;;;;4492785;28;21223;-67
2022/07/16 04:33:06;;;;;;;2.78;1.25;;;;;;;;;;4495289;28;20049;-66
2022/07/16 04:35:17;;;;;;;1.52;1.20;;;;;;;;;;4508865;28;20034;-66
2022/07/16 04:37:27;;;;;;;2.10;1.40;;;;;;;;;;4492125;28;20518;-66
2022/07/16 04:39:37;;;;;;;1.75;1.35;;;;;;;;;;4508746;28;20522;-66
2022/07/16 04:41:48;;;;;;;1.85;1.23;;;;;;;;;;4507973;28;20087;-66
2022/07/16 04:43:58;;;;;;;1.58;1.20;;;;;;;;;;4499540;28;20092;-66
2022/07/16 04:46:09;;;;;;;2.00;1.35;;;;;;;;;;4507089;28;20041;-66
2022/07/16 04:48:19;;;;;;;2.67;1.55;;;;;;;;;;4508457;28;20604;-66
2022/07/16 04:50:30;;;;;;;3.97;1.48;;;;;;;;;;4490944;28;20078;-66
2022/07/16 04:52:40;;;;;;;2.30;1.30;;;;;;;;;;4507798;28;20122;-67
2022/07/16 04:54:50;;;;;;;2.40;1.48;;;;;;;;;;4507572;28;20033;-67
2022/07/16 04:57:01;;;;;;;2.13;1.50;;;;;;;;;;4484665;28;20043;-67
2022/07/16 04:59:11;;;;;;;2.50;1.50;;;;;;;;;;4507759;28;20091;-67
2022/07/16 05:01:22;;;;;;;2.28;1.40;;;;;;;;;;4507046;28;20034;-67
2022/07/16 05:03:32;;;;;;;1.48;1.27;;;;;;;;;;4507554;28;20659;-67
2022/07/16 05:05:43;;;;;;;2.03;1.30;;;;;;;;;;4508020;28;20093;-67
2022/07/16 05:07:53;;;;;;;2.17;1.30;;;;;;;;;;4507289;28;20042;-67
2022/07/16 05:10:04;;;;;;;1.90;1.40;;;;;;;;;;4508363;28;20479;-66
2022/07/16 05:12:15;;;;;;;2.25;1.45;;;;;;;;;;4508175;28;20145;-67
2022/07/16 05:14:25;;;;;;;2.08;1.30;;;;;;;;;;4507953;28;20050;-67
2022/07/16 05:16:36;;;;;;;1.67;1.38;;;;;;;;;;4495700;28;20098;-67
2022/07/16 05:18:46;;;;;;;2.10;1.40;;;;;;;;;;4507592;28;27736;-68
2022/07/16 05:20:57;;;;;;;1.80;1.30;;;;;;;;;;4508266;28;20040;-67
2022/07/16 05:23:07;;;;;;;1.88;1.40;;;;;;;;;;4490648;28;25013;-68
2022/07/16 05:25:18;;;;;;;2.55;1.40;;;;;;;;;;4493616;28;20114;-68
2022/07/16 05:27:28;;;;;;;2.00;1.48;;;;;;;;;;4507824;28;20534;-67
2022/07/16 05:29:39;;;;;;;1.60;1.50;;;;;;;;;;4507114;28;20108;-69
2022/07/16 05:31:49;;;;;;;2.05;1.27;;;;;;;;;;4508142;28;21054;-67
2022/07/16 05:34:00;;;;;;;2.15;1.40;;;;;;;;;;4508966;28;20077;-67
2022/07/16 05:36:10;;;;;;;1.80;1.45;;;;;;;;;;4493313;28;20067;-67
2022/07/16 05:38:21;;;;;;;1.77;1.27;;;;;;;;;;4507685;28;20053;-67
2022/07/16 05:40:31;;;;;;;2.35;1.50;;;;;;;;;;4491146;28;20034;-67
2022/07/16 05:42:42;;;;;;;2.17;1.40;;;;;;;;;;4494360;28;20060;-67
2022/07/16 05:44:52;;;;;;;2.53;1.58;;;;;;;;;;4491735;28;20034;-67
2022/07/16 05:47:03;;;;;;;1.88;1.40;;;;;;;;;;4505842;28;20021;-67
2022/07/16 05:49:14;;;;;;;2.20;1.50;;;;;;;;;;4508629;28;20030;-66
2022/07/16 05:51:24;;;;;;;2.67;1.50;;;;;;;;;;4508254;28;20034;-67
2022/07/16 05:53:37;;;;;;;1.65;1.50;;;;;;;;;;4491783;28;20098;-67
2022/07/16 05:55:47;;;;;;;1.50;1.38;;;;;;;;;;4476050;28;20153;-67
2022/07/16 05:57:58;;;;;;;2.42;1.52;;;;;;;;;;4508396;28;20065;-67
2022/07/16 06:00:10;;;;;;;1.75;1.40;;;;;;;;;;4508392;28;20580;-69
2022/07/16 06:02:23;;;;;;;2.97;1.80;;;;;;;;;;4506854;28;21089;-62
2022/07/16 06:04:34;;;;;;;3.90;2.45;;;;;;;;;;4507513;28;20141;-63
2022/07/16 06:06:44;;;;;;;1.60;1.20;;;;;;;;;;4489201;28;20038;-62
2022/07/16 06:08:55;;;;;;;2.13;1.10;;;;;;;;;;4506244;28;20096;-62
2022/07/16 06:11:05;;;;;;;0.90;0.90;;;;;;;;;;4505759;28;20034;-62
2022/07/16 06:13:17;;;;;;;1.92;1.20;;;;;;;;;;4505476;28;20612;-61
2022/07/16 06:15:27;;;;;;;1.80;1.17;;;;;;;;;;4497423;28;20038;-63
2022/07/16 06:17:38;;;;;;;1.92;1.30;;;;;;;;;;4489435;28;20035;-63
2022/07/16 06:19:49;;;;;;;1.70;1.27;;;;;;;;;;4504671;28;21221;-63
2022/07/16 06:21:59;;;;;;;1.55;1.23;;;;;;;;;;4505878;28;20026;-64
2022/07/16 06:24:10;;;;;;;2.10;1.60;;;;;;;;;;4505892;28;20033;-64
2022/07/16 06:26:20;;;;;;;2.00;1.30;;;;;;;;;;4506589;28;20554;-64
2022/07/16 06:28:31;;;;;;;1.30;1.20;;;;;;;;;;4497838;28;20538;-63
2022/07/16 06:30:41;;;;;;;1.20;1.10;;;;;;;;;;4505550;28;20478;-65
2022/07/16 06:32:52;;;;;;;2.28;1.20;;;;;;;;;;4492160;28;20220;-65
2022/07/16 06:35:02;;;;;;;1.40;1.17;;;;;;;;;;4505181;28;20141;-62
2022/07/16 06:37:13;;;;;;;1.73;1.20;;;;;;;;;;4505573;28;20046;-63
2022/07/16 06:39:23;;;;;;;1.48;1.00;;;;;;;;;;4487925;28;20471;-64
2022/07/16 06:41:35;;;;;;;2.95;1.60;;;;;;;;;;4506749;28;20037;-64
2022/07/16 06:43:46;;;;;;;1.40;1.00;;;;;;;;;;4492503;28;20038;-64
2022/07/16 06:45:56;;;;;;;1.75;1.20;;;;;;;;;;4505879;28;20030;-64
2022/07/16 06:48:07;;;;;;;1.58;1.17;;;;;;;;;;4506752;28;20029;-64
2022/07/16 06:50:17;;;;;;;0.80;0.70;;;;;;;;;;4506627;28;20156;-64
2022/07/16 06:52:28;;;;;;;1.70;1.20;;;;;;;;;;4488089;28;20026;-64
2022/07/16 06:54:38;;;;;;;2.10;1.30;;;;;;;;;;4505129;28;20741;-64
2022/07/16 06:56:48;;;;;;;1.20;1.00;;;;;;;;;;4507577;28;20528;-63
2022/07/16 06:58:59;;;;;;;1.13;0.93;;;;;;;;;;4487903;28;20069;-63
2022/07/16 07:01:10;;;;;;;1.30;0.82;;;;;;;;;;4506785;28;20042;-64
2022/07/16 07:03:20;;;;;;;1.50;0.80;;;;;;;;;;4505980;28;20045;-64
2022/07/16 07:05:31;;;;;;;1.98;1.02;;;;;;;;;;4488869;28;20034;-63
2022/07/16 07:07:41;;;;;;;0.90;0.82;;;;;;;;;;4507227;28;20523;-64
2022/07/16 07:09:52;;;;;;;1.10;1.00;;;;;;;;;;4474865;28;20023;-64
2022/07/16 07:12:02;;;;;;;1.55;1.10;;;;;;;;;;4507668;28;20095;-63
2022/07/16 07:14:13;;;;;;;1.13;1.00;;;;;;;;;;4505705;28;20151;-63
2022/07/16 07:16:23;;;;;;;1.02;0.93;;;;;;;;;;4491612;28;20033;-63
2022/07/16 07:18:33;;;;;;;1.50;1.10;;;;;;;;;;4505200;28;20037;-63
2022/07/16 07:20:44;;;;;;;0.70;0.70;;;;;;;;;;4504351;28;20858;-63
2022/07/16 07:22:54;;;;;;;1.33;1.00;;;;;;;;;;4486808;28;20029;-64
2022/07/16 07:25:05;;;;;;;1.15;1.00;;;;;;;;;;4504872;28;20042;-63
2022/07/16 07:27:16;;;;;;;1.42;1.00;;;;;;;;;;4490765;28;20130;-64
2022/07/16 07:29:26;;;;;;;1.02;0.93;;;;;;;;;;4503967;28;20041;-63
2022/07/16 07:31:37;;;;;;;1.00;0.90;;;;;;;;;;4491225;28;20038;-63
2022/07/16 07:33:47;;;;;;;1.20;0.90;;;;;;;;;;4506156;28;20534;-63
2022/07/16 07:35:58;;;;;;;1.88;1.13;;;;;;;;;;4507658;28;20041;-63
2022/07/16 07:38:08;;;;;;;1.48;1.10;;;;;;;;;;4504634;28;20116;-63
2022/07/16 07:40:19;;;;;;;1.88;0.90;;;;;;;;;;4505147;28;20129;-62
2022/07/16 07:42:30;;;;;;;1.15;0.80;;;;;;;;;;4505762;28;20096;-64
2022/07/16 07:44:40;;;;;;;0.73;0.73;;;;;;;;;;4489948;28;20042;-64
2022/07/16 07:46:51;;;;;;;1.20;0.80;;;;;;;;;;4506782;28;20133;-63
2022/07/16 07:49:02;;;;;;;1.33;0.80;;;;;;;;;;4505812;28;20025;-64
2022/07/16 07:51:12;;;;;;;1.08;0.80;;;;;;;;;;4485817;28;20039;-67
2022/07/16 07:53:22;;;;;;;1.48;0.80;;;;;;;;;;4506505;28;20064;-67
2022/07/16 07:55:33;;;;;;;1.13;0.80;;;;;;;;;;4505908;28;20041;-67
2022/07/16 07:57:43;;;;;;;1.27;0.80;;;;;;;;;;4475926;28;20113;-67
2022/07/16 07:59:54;;;;;;;0.90;0.70;;;;;;;;;;4505964;28;20060;-68
2022/07/16 08:02:05;;;;;;;1.45;0.80;;;;;;;;;;4486856;28;20334;-68
2022/07/16 08:04:15;;;;;;;1.10;0.90;;;;;;;;;;4506993;28;20065;-68
2022/07/16 08:06:26;;;;;;;0.88;0.73;;;;;;;;;;4505833;28;20088;-68
2022/07/16 08:08:36;;;;;;;0.80;0.80;;;;;;;;;;4505072;28;20057;-68
2022/07/16 08:10:47;;;;;;;1.05;0.93;;;;;;;;;;4488267;28;20034;-68
2022/07/16 08:12:57;;;;;;;1.30;0.80;;;;;;;;;;4491370;28;20031;-68
2022/07/16 08:15:09;;;;;;;1.20;0.90;;;;;;;;;;4505251;28;20033;-68
2022/07/16 08:17:19;;;;;;;0.93;0.80;;;;;;;;;;4475510;28;20046;-68
2022/07/16 08:19:31;;;;;;;0.80;0.80;;;;;;;;;;4505763;28;20038;-68
2022/07/16 08:21:42;;;;;;;1.10;0.90;;;;;;;;;;4486887;28;20034;-67
2022/07/16 08:26:21;;;;;;;1.10;0.80;;;;;;;;;;4494006;28;20041;-68
2022/07/16 08:28:31;;;;;;;1.00;0.90;;;;;;;;;;4505278;28;20036;-68
2022/07/16 08:30:42;;;;;;;1.30;0.77;;;;;;;;;;4505137;28;20077;-68
2022/07/16 08:32:53;;;;;;;0.82;0.70;;;;;;;;;;4505387;28;20053;-68
2022/07/16 08:35:04;;;;;;;1.15;0.80;;;;;;;;;;4505653;28;20048;-66
2022/07/16 08:37:14;;;;;;;1.08;0.82;;;;;;;;;;4503603;28;20440;-66
2022/07/16 08:39:25;;;;;;;1.75;0.80;;;;;;;;;;4505267;28;20025;-67
2022/07/16 08:41:35;;;;;;;0.90;0.80;;;;;;;;;;4506421;28;20580;-68
2022/07/16 08:43:46;;;;;;;1.10;0.90;;;;;;;;;;4505877;28;20042;-68
2022/07/16 08:45:57;;;;;;;0.90;0.73;;;;;;;;;;4505565;28;20088;-67
2022/07/16 08:48:08;;;;;;;0.85;0.77;;;;;;;;;;4499894;28;20089;-65
2022/07/16 08:50:19;;;;;;;1.17;0.73;;;;;;;;;;4508987;28;20581;-66
2022/07/16 08:52:30;;;;;;;1.60;1.00;;;;;;;;;;4508249;28;20045;-66
2022/07/16 08:54:40;;;;;;;0.90;0.80;;;;;;;;;;4509247;28;20041;-67
2022/07/16 08:56:51;;;;;;;1.30;0.80;;;;;;;;;;4478674;28;20903;-66
2022/07/16 08:59:03;;;;;;;0.95;0.80;;;;;;;;;;4508507;28;20030;-66
2022/07/16 09:01:13;;;;;;;1.45;0.70;;;;;;;;;;4510845;28;20100;-67
2022/07/16 09:03:24;;;;;;;2.05;0.90;;;;;;;;;;4509233;28;20049;-68
2022/07/16 09:05:34;;;;;;;1.48;0.70;;;;;;;;;;4509019;28;20041;-67
2022/07/16 09:07:45;;;;;;;1.70;0.90;;;;;;;;;;4493447;28;20052;-68
2022/07/16 09:09:55;;;;;;;1.20;0.65;;;;;;;;;;4510785;28;20025;-67
2022/07/16 09:12:06;;;;;;;0.60;0.60;;;;;;;;;;4492237;28;20088;-68
2022/07/16 09:14:18;;;;;;;1.48;0.65;;;;;;;;;;4490443;28;20039;-65
2022/07/16 09:16:33;;;;;;;1.17;0.70;;;;;;;;;;4499188;28;20034;-70
2022/07/16 09:18:43;;;;;;;0.70;0.70;;;;;;;;;;4500459;28;20034;-73
2022/07/16 09:20:57;;;;;;;1.35;0.90;;;;;;;;;;4507513;28;20068;-70
2022/07/16 09:23:18;;;;;;;1.10;0.90;;;;;;;;;;4507769;28;20038;-71
2022/07/16 09:25:29;;;;;;;0.95;0.70;;;;;;;;;;4509192;28;20088;-70
2022/07/16 09:27:41;;;;;;;0.98;0.70;;;;;;;;;;4507510;28;20069;-70
2022/07/16 09:29:54;;;;;;;1.85;0.80;;;;;;;;;;4508950;28;20037;-70
2022/07/16 09:32:05;;;;;;;1.42;1.02;;;;;;;;;;4507823;28;20038;-70
2022/07/16 09:34:16;;;;;;;0.90;0.70;;;;;;;;;;4508115;28;20493;-71
2022/07/16 09:36:26;;;;;;;1.65;0.77;;;;;;;;;;4508677;28;20042;-70
2022/07/16 09:38:50;;;;;;;1.15;0.80;;;;;;;;;;4506910;28;20030;-70
2022/07/16 09:41:01;;;;;;;1.23;0.77;;;;;;;;;;4499223;28;20033;-70
2022/07/16 09:43:12;;;;;;;1.00;0.90;;;;;;;;;;4492307;28;20519;-70
2022/07/16 09:45:22;;;;;;;1.50;0.80;;;;;;;;;;4499065;28;20104;-69
2022/07/16 09:47:33;;;;;;;0.90;0.70;;;;;;;;;;4506408;28;20044;-68
2022/07/16 09:49:50;;;;;;;0.70;0.65;;;;;;;;;;4491654;28;20480;-70
2022/07/16 09:52:01;;;;;;;1.15;0.75;;;;;;;;;;4483290;28;20182;-69
2022/07/16 09:54:33;;;;;;;1.40;0.70;;;;;;;;;;4507944;28;20154;-68
2022/07/16 09:56:43;;;;;;;1.30;0.73;;;;;;;;;;4489701;28;20045;-69
2022/07/16 09:58:57;;;;;;;0.77;0.60;;;;;;;;;;4506336;28;20044;-69
2022/07/16 10:01:08;;;;;;;0.95;0.70;;;;;;;;;;4508406;28;20029;-69
2022/07/16 10:03:19;;;;;;;0.98;0.68;;;;;;;;;;4507775;28;20042;-69
2022/07/16 10:05:30;;;;;;;0.77;0.70;;;;;;;;;;4508834;28;20038;-70
2022/07/16 10:07:41;;;;;;;0.82;0.75;;;;;;;;;;4507060;28;20037;-70
2022/07/16 10:09:52;;;;;;;1.35;0.70;;;;;;;;;;4506498;28;20029;-70
2022/07/16 10:12:08;;;;;;;1.52;0.80;;;;;;;;;;4505335;28;20558;-69
2022/07/16 10:14:19;;;;;;;1.17;0.80;;;;;;;;;;4492545;28;20128;-69
2022/07/16 10:16:38;;;;;;;0.90;0.63;;;;;;;;;;4493630;28;20158;-69
2022/07/16 10:18:48;;;;;;;0.90;0.60;;;;;;;;;;4476569;28;20106;-69
2022/07/16 10:21:15;;;;;;;1.00;0.63;;;;;;;;;;4489737;28;20114;-69
2022/07/16 10:23:29;;;;;;;0.82;0.65;;;;;;;;;;4479341;28;20046;-69
2022/07/16 10:25:40;;;;;;;0.90;0.60;;;;;;;;;;4506478;28;20087;-69
2022/07/16 10:27:51;;;;;;;0.57;0.57;;;;;;;;;;4507678;28;20161;-69
2022/07/16 10:30:21;;;;;;;0.85;0.60;;;;;;;;;;4508981;28;20029;-68
2022/07/16 10:33:00;;;;;;;1.00;0.70;;;;;;;;;;4507473;28;20048;-69
2022/07/16 10:35:30;;;;;;;0.95;0.70;;;;;;;;;;4506855;28;20030;-68
2022/07/16 10:37:41;;;;;;;2.35;0.73;;;;;;;;;;4505842;28;20104;-69
2022/07/16 10:40:03;;;;;;;1.15;0.50;;;;;;;;;;4489913;28;20094;-69
2022/07/16 10:42:17;;;;;;;0.85;0.60;;;;;;;;;;4506060;28;20304;-69
2022/07/16 10:44:48;;;;;;;0.80;0.73;;;;;;;;;;4505782;28;20028;-70
2022/07/16 10:47:03;;;;;;;1.05;0.70;;;;;;;;;;4476771;28;20133;-69
2022/07/16 10:49:14;;;;;;;0.63;0.60;;;;;;;;;;4482367;28;20034;-69
2022/07/16 10:51:25;;;;;;;0.88;0.70;;;;;;;;;;4506802;28;20185;-69
2022/07/16 10:53:57;;;;;;;0.88;0.70;;;;;;;;;;4507536;28;20527;-68
2022/07/16 10:56:32;;;;;;;1.05;0.60;;;;;;;;;;4508617;28;20029;-69
2022/07/16 10:58:43;;;;;;;1.10;0.63;;;;;;;;;;4507415;28;20042;-69
2022/07/16 11:00:54;;;;;;;0.85;0.70;;;;;;;;;;4489219;28;21467;-69
2022/07/16 11:03:04;;;;;;;1.30;0.80;;;;;;;;;;4507051;28;20041;-70
2022/07/16 11:05:15;;;;;;;1.20;0.80;;;;;;;;;;4491149;28;20042;-69
2022/07/16 11:07:33;;;;;;;0.82;0.68;;;;;;;;;;4508555;28;20022;-69
2022/07/16 11:09:50;;;;;;;0.90;0.73;;;;;;;;;;4507041;28;20513;-69
2022/07/16 11:12:06;;;;;;;;;;;;;;;;;;4494889;28;21072;-69
2022/07/16 11:14:17;;;;;;;0.95;0.60;;;;;;;;;;4506947;28;20512;-70
2022/07/16 11:16:27;;;;;;;1.52;0.80;;;;;;;;;;4508226;28;20038;-69
2022/07/16 11:18:39;;;;;;;1.88;0.98;;;;;;;;;;4508488;28;20056;-70
2022/07/16 11:20:50;;;;;;;1.17;0.88;;;;;;;;;;4505441;28;20030;-69
2022/07/16 11:23:05;;;;;;;1.27;0.70;;;;;;;;;;4507882;28;20038;-69
2022/07/16 11:25:15;;;;;;;1.27;0.60;;;;;;;;;;4493967;28;20037;-68
2022/07/16 11:27:28;;;;;;;1.10;0.50;;;;;;;;;;4508191;28;20512;-70
2022/07/16 11:29:38;;;;;;;1.15;0.60;;;;;;;;;;4506651;28;20160;-70
2022/07/16 11:31:49;;;;;;;1.23;0.60;;;;;;;;;;4489018;28;20133;-69
2022/07/16 11:34:02;;;;;;;1.48;0.70;;;;;;;;;;4507461;28;20040;-69
2022/07/16 11:36:13;;;;;;;1.80;0.70;;;;;;;;;;4506036;28;20057;-68
2022/07/16 11:38:27;;;;;;;2.13;0.85;;;;;;;;;;4488958;28;20037;-67
2022/07/16 11:40:39;;;;;;;0.85;0.60;;;;;;;;;;4508540;28;20038;-68
2022/07/16 11:42:57;;;;;;;0.95;0.60;;;;;;;;;;4505464;28;20044;-67
2022/07/16 11:45:09;;;;;;;0.65;0.60;;;;;;;;;;4489245;28;21032;-69
2022/07/16 11:47:23;;;;;;;0.63;0.63;;;;;;;;;;4497241;28;20038;-69
2022/07/16 11:49:34;;;;;;;1.65;0.70;;;;;;;;;;4505735;28;20045;-69
2022/07/16 11:51:44;;;;;;;1.30;0.75;;;;;;;;;;4505160;28;20057;-69
2022/07/16 11:53:55;;;;;;;1.52;0.73;;;;;;;;;;4505731;28;20073;-70
2022/07/16 11:56:06;;;;;;;0.90;0.60;;;;;;;;;;4507453;28;20540;-70
2022/07/16 11:58:18;;;;;;;1.75;0.90;;;;;;;;;;4491473;28;20043;-69
2022/07/16 12:00:41;;;;;;;1.77;0.75;;;;;;;;;;4491423;28;20038;-70
2022/07/16 12:02:57;;;;;;;1.33;0.70;;;;;;;;;;4507232;28;20046;-69
2022/07/16 12:05:07;;;;;;;0.98;0.60;;;;;;;;;;4498441;28;20098;-69
2022/07/16 12:07:24;;;;;;;1.25;0.70;;;;;;;;;;4492416;28;20692;-69
2022/07/16 12:09:38;;;;;;;1.73;0.73;;;;;;;;;;4505962;28;20037;-68
2022/07/16 12:11:58;;;;;;;2.05;0.60;;;;;;;;;;4498499;28;20037;-70
2022/07/16 12:14:09;;;;;;;1.38;0.70;;;;;;;;;;4506869;28;20096;-70
2022/07/16 12:16:20;;;;;;;0.98;0.52;;;;;;;;;;4506789;28;20577;-69
2022/07/16 12:18:31;;;;;;;0.63;0.60;;;;;;;;;;4507029;28;20589;-69
2022/07/16 12:20:41;;;;;;;1.70;0.50;;;;;;;;;;4507399;28;20034;-70
2022/07/16 12:23:22;;;;;;;0.70;0.50;;;;;;;;;;4495067;28;20064;-70
2022/07/16 12:25:37;;;;;;;1.08;0.60;;;;;;;;;;4483313;28;20586;-68
2022/07/16 12:27:51;;;;;;;1.58;0.50;;;;;;;;;;4509557;28;21244;-69
2022/07/16 12:30:03;;;;;;;0.82;0.60;;;;;;;;;;4508930;28;20157;-69
2022/07/16 12:32:14;;;;;;;1.75;0.60;;;;;;;;;;4492278;28;20034;-68
2022/07/16 12:34:24;;;;;;;1.35;0.68;;;;;;;;;;4490830;28;20478;-69
2022/07/16 12:36:37;;;;;;;1.23;0.63;;;;;;;;;;4492095;28;20057;-69
2022/07/16 12:38:55;;;;;;;1.48;0.68;;;;;;;;;;4509871;28;20035;-70
2022/07/16 12:41:15;;;;;;;1.25;0.70;;;;;;;;;;4510873;28;20041;-68
2022/07/16 12:43:25;;;;;;;0.88;0.60;;;;;;;;;;4507909;28;20148;-69
2022/07/16 12:45:36;;;;;;;1.35;0.57;;;;;;;;;;4509106;28;20389;-69
2022/07/16 12:47:46;;;;;;;0.82;0.50;;;;;;;;;;4509492;28;20034;-68
2022/07/16 12:49:57;;;;;;;2.72;0.60;;;;;;;;;;4501505;28;20052;-67
2022/07/16 12:52:07;;;;;;;1.90;0.45;;;;;;;;;;4509600;28;20041;-69
2022/07/16 12:54:19;;;;;;;0.95;0.60;;;;;;;;;;4509838;28;20037;-69
2022/07/16 12:59:00;;;;;;;1.15;0.50;;;;;;;;;;4493779;28;20030;-68
2022/07/16 13:01:11;;;;;;;1.30;0.52;;;;;;;;;;4509555;28;20018;-68
2022/07/16 13:03:21;;;;;;;0.73;0.50;;;;;;;;;;4479504;28;20616;-68
2022/07/16 13:05:32;;;;;;;0.90;0.50;;;;;;;;;;4507722;28;20664;-68
2022/07/16 13:07:42;;;;;;;1.25;0.60;;;;;;;;;;4499111;28;20034;-70
2022/07/16 13:09:53;;;;;;;1.38;0.63;;;;;;;;;;4508379;28;20033;-69
2022/07/16 13:12:03;;;;;;;0.70;0.50;;;;;;;;;;4491279;28;20673;-68
2022/07/16 13:14:14;;;;;;;0.98;0.55;;;;;;;;;;4508548;28;20745;-69
2022/07/16 13:16:26;;;;;;;1.08;0.52;;;;;;;;;;4508305;28;20497;-69
2022/07/16 13:18:36;;;;;;;1.02;0.50;;;;;;;;;;4508243;28;20034;-70
2022/07/16 13:20:47;;;;;;;0.55;0.40;;;;;;;;;;4499881;28;20033;-69